Time;durP1;ratioP1;P1;durP2;ratioP2;P2;SDS_P1;SDS_P2;PMS_P1;PMS_P2;Temp;Humidity;BMP_temperature;BMP_pressure;BME280_temperature;BME280_humidity;BME280_pressure;Samples;Min_cycle;Max_cycle;Signal;HPM_P1;HPM_P2
2022/02/23 00:00:45;;;;;;;4.00;0.90;;;29.40;99.90;;;;;;5015123;28;20689;-75
2022/02/23 00:03:13;;;;;;;2.65;0.70;;;29.10;99.90;;;;;;5025488;28;20073;-70
2022/02/23 00:05:40;;;;;;;2.80;0.95;;;28.80;99.90;;;;;;5020654;28;20033;-72
2022/02/23 00:08:07;;;;;;;3.30;0.63;;;28.50;99.90;;;;;;5024474;28;20368;-71
2022/02/23 00:10:35;;;;;;;2.63;0.73;;;28.40;99.90;;;;;;5021834;28;20025;-72
2022/02/23 00:13:02;;;;;;;4.72;0.50;;;28.90;99.90;;;;;;5027222;28;20107;-72
2022/02/23 00:15:29;;;;;;;3.58;1.13;;;28.90;99.90;;;;;;5017343;28;20047;-77
2022/02/23 00:17:57;;;;;;;2.60;0.47;;;28.70;99.90;;;;;;5017323;28;20396;-72
2022/02/23 00:20:24;;;;;;;3.20;1.17;;;28.40;99.90;;;;;;5021915;28;20021;-74
2022/02/23 00:22:51;;;;;;;3.35;0.95;;;28.10;99.90;;;;;;5027562;28;20122;-79
2022/02/23 00:25:19;;;;;;;4.20;0.40;;;28.20;99.90;;;;;;5029833;28;20112;-80
2022/02/23 00:27:46;;;;;;;3.42;0.30;;;28.20;99.90;;;;;;5028612;28;20028;-79
2022/02/23 00:30:14;;;;;;;2.85;0.40;;;28.10;99.90;;;;;;5025031;28;20068;-73
2022/02/23 00:32:41;;;;;;;1.20;0.47;;;27.90;99.90;;;;;;5023856;28;20059;-71
2022/02/23 00:35:08;;;;;;;3.10;0.60;;;27.70;99.90;;;;;;5016211;28;20034;-72
2022/02/23 00:37:36;;;;;;;1.92;0.50;;;27.50;99.90;;;;;;5021402;28;20040;-75
2022/02/23 00:40:04;;;;;;;1.23;0.50;;;27.20;99.90;;;;;;5018882;28;20029;-70
2022/02/23 00:42:31;;;;;;;3.33;0.68;;;27.00;99.90;;;;;;5025078;28;20056;-68
2022/02/23 00:44:59;;;;;;;3.53;0.50;;;27.00;99.90;;;;;;5026669;28;20029;-71
2022/02/23 00:47:26;;;;;;;4.72;1.05;;;26.90;99.90;;;;;;5021384;28;20457;-70
2022/02/23 00:49:53;;;;;;;2.80;0.57;;;26.80;99.90;;;;;;5013015;28;20113;-72
2022/02/23 00:52:21;;;;;;;2.20;0.88;;;26.70;99.90;;;;;;5014642;28;20153;-71
2022/02/23 00:54:48;;;;;;;2.08;0.77;;;26.60;99.90;;;;;;5021874;28;20026;-72
2022/02/23 00:57:15;;;;;;;3.00;0.43;;;26.60;99.90;;;;;;5020027;28;20028;-73
2022/02/23 00:59:46;;;;;;;1.70;0.40;;;26.60;99.90;;;;;;5020253;28;20049;-72
2022/02/23 01:02:13;;;;;;;0.70;0.30;;;26.50;99.90;;;;;;5025676;28;20026;-73
2022/02/23 01:04:40;;;;;;;4.05;0.68;;;26.20;99.90;;;;;;5023908;28;20060;-74
2022/02/23 01:07:10;;;;;;;2.38;0.50;;;26.00;99.90;;;;;;5019931;28;20187;-74
2022/02/23 01:09:38;;;;;;;3.50;0.80;;;25.90;99.90;;;;;;5025825;28;20037;-72
2022/02/23 01:12:05;;;;;;;1.70;0.45;;;25.60;99.90;;;;;;5026828;28;20127;-74
2022/02/23 01:14:33;;;;;;;2.65;0.40;;;25.30;99.90;;;;;;5024834;28;20549;-75
2022/02/23 01:17:00;;;;;;;1.00;0.63;;;25.00;99.90;;;;;;5027581;28;20034;-71
2022/02/23 01:19:28;;;;;;;2.53;1.02;;;24.80;99.90;;;;;;5024672;28;20652;-72
2022/02/23 01:21:55;;;;;;;1.40;0.50;;;24.50;99.90;;;;;;5024082;28;20026;-73
2022/02/23 01:24:22;;;;;;;1.52;0.70;;;24.40;99.90;;;;;;5027549;28;20041;-71
2022/02/23 01:26:50;;;;;;;1.88;0.70;;;24.10;99.90;;;;;;5016161;28;20032;-76
2022/02/23 01:29:17;;;;;;;2.50;0.60;;;23.90;99.90;;;;;;5029245;28;20384;-73
2022/02/23 01:31:44;;;;;;;2.00;0.45;;;23.80;99.90;;;;;;5015299;28;20391;-72
2022/02/23 01:34:12;;;;;;;0.80;0.40;;;23.60;99.90;;;;;;5027159;28;20041;-78
2022/02/23 01:36:39;;;;;;;0.63;0.20;;;23.40;99.90;;;;;;5021321;28;20044;-81
2022/02/23 01:39:06;;;;;;;0.93;0.82;;;23.40;99.90;;;;;;5028547;28;20026;-78
2022/02/23 01:41:34;;;;;;;1.25;0.38;;;23.40;99.90;;;;;;5030444;28;20120;-78
2022/02/23 01:44:01;;;;;;;2.63;0.60;;;23.40;99.90;;;;;;5020671;28;20026;-76
2022/02/23 01:46:30;;;;;;;1.52;0.20;;;23.40;99.90;;;;;;5027034;28;20026;-76
2022/02/23 01:48:58;;;;;;;0.47;0.22;;;23.40;99.90;;;;;;5024364;28;20408;-71
2022/02/23 01:51:25;;;;;;;1.98;0.57;;;23.40;99.90;;;;;;5029273;28;20040;-75
2022/02/23 01:53:52;;;;;;;2.90;0.68;;;23.30;99.90;;;;;;5020851;28;20387;-77
2022/02/23 01:56:20;;;;;;;2.45;0.60;;;23.40;99.90;;;;;;5034386;28;20034;-76
2022/02/23 01:58:47;;;;;;;1.48;0.40;;;23.50;99.90;;;;;;5029630;28;20026;-79
2022/02/23 02:01:15;;;;;;;2.90;0.88;;;23.70;99.90;;;;;;5029873;28;20083;-74
2022/02/23 02:03:45;;;;;;;2.70;0.60;;;23.80;99.90;;;;;;5030169;28;20045;-79
2022/02/23 02:06:12;;;;;;;3.53;0.80;;;23.90;99.90;;;;;;5030158;28;20021;-77
2022/02/23 02:08:40;;;;;;;1.33;0.50;;;23.90;99.90;;;;;;5028172;28;20037;-74
2022/02/23 02:11:07;;;;;;;4.18;1.35;;;23.90;99.90;;;;;;5033797;28;20021;-78
2022/02/23 02:13:34;;;;;;;3.63;0.93;;;23.80;99.90;;;;;;5028284;28;20093;-73
2022/02/23 02:16:02;;;;;;;3.03;0.85;;;23.80;99.90;;;;;;5030053;28;20079;-73
2022/02/23 02:18:29;;;;;;;2.40;1.08;;;23.90;99.90;;;;;;5028787;28;20748;-72
2022/02/23 02:20:56;;;;;;;1.42;0.60;;;23.90;99.90;;;;;;5028482;28;20033;-75
2022/02/23 02:23:24;;;;;;;1.77;0.60;;;24.00;99.90;;;;;;5031106;28;20393;-73
2022/02/23 02:25:51;;;;;;;1.85;0.50;;;24.10;99.90;;;;;;5033648;28;20026;-78
2022/02/23 02:28:18;;;;;;;0.70;0.40;;;24.20;99.90;;;;;;5029106;28;20037;-74
2022/02/23 02:30:46;;;;;;;1.30;0.30;;;24.30;99.90;;;;;;5029157;28;20049;-74
2022/02/23 02:33:13;;;;;;;0.65;0.25;;;24.50;99.90;;;;;;5030488;28;20452;-73
2022/02/23 02:35:41;;;;;;;1.35;0.50;;;24.80;99.90;;;;;;5029234;28;20074;-73
2022/02/23 02:38:09;;;;;;;3.72;0.85;;;25.00;99.90;;;;;;5029908;28;20448;-74
2022/02/23 02:40:36;;;;;;;2.78;0.93;;;25.50;99.90;;;;;;5030979;28;20071;-74
2022/02/23 02:43:07;;;;;;;2.20;1.23;;;26.00;99.90;;;;;;5038518;28;20547;-74
2022/02/23 02:45:35;;;;;;;4.10;0.75;;;27.00;99.90;;;;;;5030172;28;20029;-74
2022/02/23 02:48:02;;;;;;;1.83;0.75;;;27.90;99.90;;;;;;5031589;28;20033;-75
2022/02/23 02:50:29;;;;;;;2.83;0.73;;;28.20;99.90;;;;;;5031057;28;20025;-73
2022/02/23 02:52:57;;;;;;;1.85;0.45;;;28.60;99.90;;;;;;5020948;28;20037;-74
2022/02/23 02:55:26;;;;;;;3.40;0.30;;;29.10;99.90;;;;;;5018549;28;20029;-74
2022/02/23 02:57:53;;;;;;;1.67;0.30;;;29.10;99.90;;;;;;5030740;28;20030;-72
2022/02/23 03:00:20;;;;;;;2.00;0.45;;;28.70;99.90;;;;;;5030667;28;20057;-74
2022/02/23 03:02:48;;;;;;;1.05;0.40;;;28.20;99.90;;;;;;5025757;28;20040;-74
2022/02/23 03:05:15;;;;;;;1.80;0.22;;;27.80;99.90;;;;;;5032020;28;20037;-73
2022/02/23 03:07:42;;;;;;;2.45;0.30;;;27.50;99.90;;;;;;5030908;28;20033;-74
2022/02/23 03:10:13;;;;;;;2.10;0.40;;;27.40;99.90;;;;;;5032839;28;20025;-74
2022/02/23 03:12:40;;;;;;;1.02;0.35;;;27.50;99.90;;;;;;5030262;28;20033;-74
2022/02/23 03:15:08;;;;;;;1.33;0.43;;;27.70;99.90;;;;;;5032718;28;20040;-73
2022/02/23 03:17:36;;;;;;;4.00;1.05;;;28.10;99.90;;;;;;5019846;28;20033;-73
2022/02/23 03:20:04;;;;;;;2.25;0.50;;;28.10;99.90;;;;;;5045951;28;20483;-76
2022/02/23 03:22:32;;;;;;;2.50;0.70;;;28.10;99.90;;;;;;5029412;28;20029;-75
2022/02/23 03:24:59;;;;;;;2.38;0.43;;;28.20;99.90;;;;;;5031010;28;20124;-74
2022/02/23 03:27:26;;;;;;;2.63;0.82;;;28.40;99.90;;;;;;5024339;28;20026;-73
2022/02/23 03:29:55;;;;;;;1.67;0.40;;;28.50;99.90;;;;;;5022441;28;20133;-74
2022/02/23 03:32:22;;;;;;;1.85;0.63;;;28.90;99.90;;;;;;5027522;28;20040;-74
2022/02/23 03:34:50;;;;;;;0.80;0.40;;;29.10;99.90;;;;;;5031733;28;20105;-74
2022/02/23 03:37:17;;;;;;;1.38;0.73;;;29.10;99.90;;;;;;5029683;28;20037;-75
2022/02/23 03:39:44;;;;;;;2.85;0.45;;;29.00;99.90;;;;;;5032493;28;20071;-73
2022/02/23 03:42:12;;;;;;;3.10;0.73;;;29.10;99.90;;;;;;5029919;28;20030;-76
2022/02/23 03:44:39;;;;;;;2.78;0.57;;;29.30;99.90;;;;;;5028808;28;20022;-74
2022/02/23 03:47:19;;;;;;;1.58;0.30;;;29.20;99.90;;;;;;5019027;28;20117;-74
2022/02/23 03:49:46;;;;;;;1.80;0.68;;;29.30;99.90;;;;;;5030588;28;20092;-73
2022/02/23 03:52:13;;;;;;;2.53;0.77;;;29.70;99.90;;;;;;5028321;28;20026;-74
2022/02/23 03:54:41;;;;;;;3.25;0.40;;;30.20;99.90;;;;;;5031195;28;20486;-74
2022/02/23 03:57:08;;;;;;;1.27;0.45;;;30.40;99.90;;;;;;5027641;28;20048;-75
2022/02/23 03:59:35;;;;;;;1.55;0.55;;;30.10;99.90;;;;;;5030379;28;20051;-74
2022/02/23 04:02:03;;;;;;;1.38;0.22;;;29.80;99.90;;;;;;5024403;28;20022;-73
2022/02/23 04:04:30;;;;;;;2.42;0.75;;;29.40;99.90;;;;;;5028516;28;20410;-75
2022/02/23 04:06:58;;;;;;;3.58;0.63;;;29.20;99.90;;;;;;5028534;28;20057;-76
2022/02/23 04:09:25;;;;;;;2.03;0.52;;;29.30;99.90;;;;;;5028373;28;20029;-74
2022/02/23 04:11:52;;;;;;;3.80;1.13;;;29.10;99.90;;;;;;5017887;28;20105;-72
2022/02/23 04:14:19;;;;;;;1.13;0.52;;;29.30;99.90;;;;;;5022896;28;20094;-73
2022/02/23 04:16:50;;;;;;;1.30;0.30;;;29.50;99.90;;;;;;5026432;28;20057;-75
2022/02/23 04:19:18;;;;;;;2.50;0.45;;;29.90;99.90;;;;;;5025514;28;20306;-72
2022/02/23 04:21:45;;;;;;;2.53;0.30;;;30.00;99.90;;;;;;5024785;28;20040;-74
2022/02/23 04:24:12;;;;;;;1.55;0.30;;;29.60;99.90;;;;;;5027879;28;20022;-74
2022/02/23 04:26:40;;;;;;;2.70;0.50;;;29.10;99.90;;;;;;5028887;28;20128;-74
2022/02/23 04:29:07;;;;;;;5.63;0.80;;;28.40;99.90;;;;;;5027482;28;20065;-76
2022/02/23 04:31:41;;;;;;;5.72;1.00;;;27.80;99.90;;;;;;5026341;28;20030;-77
2022/02/23 04:34:08;;;;;;;3.97;0.68;;;27.30;99.90;;;;;;5058786;28;20123;-76
2022/02/23 04:36:35;;;;;;;4.30;0.68;;;27.20;99.90;;;;;;5023151;28;20603;-75
2022/02/23 04:39:05;;;;;;;3.42;0.75;;;27.30;99.90;;;;;;5021974;28;20041;-73
2022/02/23 04:41:32;;;;;;;5.93;0.90;;;27.80;99.90;;;;;;5028639;28;20578;-74
2022/02/23 04:44:00;;;;;;;2.45;0.65;;;28.10;99.90;;;;;;5022794;28;20083;-75
2022/02/23 04:46:27;;;;;;;1.48;0.65;;;28.50;99.90;;;;;;5019935;28;20125;-78
2022/02/23 04:48:55;;;;;;;3.03;0.30;;;28.80;99.90;;;;;;5020151;28;20735;-76
2022/02/23 04:51:25;;;;;;;3.97;0.52;;;29.10;99.90;;;;;;5025869;28;20064;-77
2022/02/23 04:53:53;;;;;;;4.72;0.65;;;28.90;99.90;;;;;;5025753;28;20022;-77
2022/02/23 04:56:21;;;;;;;1.65;0.40;;;29.00;99.90;;;;;;5030117;28;20025;-74
2022/02/23 04:58:48;;;;;;;1.13;0.60;;;29.10;99.90;;;;;;5017011;28;20112;-78
2022/02/23 05:01:16;;;;;;;2.83;1.10;;;29.20;99.90;;;;;;5024416;28;20476;-76
2022/02/23 05:03:44;;;;;;;2.95;0.40;;;29.40;99.90;;;;;;5060141;28;20150;-74
2022/02/23 05:06:11;;;;;;;4.25;1.02;;;29.50;99.90;;;;;;5023590;28;20029;-74
2022/02/23 05:08:39;;;;;;;3.13;0.35;;;29.50;99.90;;;;;;5022604;28;20038;-75
2022/02/23 05:11:07;;;;;;;3.58;0.60;;;29.50;99.90;;;;;;5022684;28;20036;-74
2022/02/23 05:13:34;;;;;;;6.00;0.60;;;29.40;99.90;;;;;;5027991;28;20044;-79
2022/02/23 05:16:03;;;;;;;1.92;0.50;;;29.30;99.90;;;;;;5024462;28;20036;-76
2022/02/23 05:18:32;;;;;;;1.48;0.50;;;29.30;99.90;;;;;;5022458;28;20112;-77
2022/02/23 05:21:00;;;;;;;1.95;0.30;;;29.40;99.90;;;;;;5020823;28;20431;-76
2022/02/23 05:23:30;;;;;;;1.65;0.60;;;29.50;99.90;;;;;;5018026;28;20040;-76
2022/02/23 05:25:59;;;;;;;3.80;0.77;;;29.70;99.90;;;;;;5013377;28;20046;-82
2022/02/23 05:28:27;;;;;;;4.63;0.95;;;29.80;99.90;;;;;;5025476;28;20041;-77
2022/02/23 05:30:54;;;;;;;3.40;1.20;;;29.80;99.90;;;;;;5025756;28;20083;-77
2022/02/23 05:33:21;;;;;;;4.15;0.30;;;29.80;99.90;;;;;;5019859;28;20064;-73
2022/02/23 05:35:49;;;;;;;0.80;0.30;;;29.70;99.90;;;;;;5019208;28;21447;-79
2022/02/23 05:38:16;;;;;;;3.20;0.55;;;29.40;99.90;;;;;;5015016;28;20032;-80
2022/02/23 05:40:44;;;;;;;3.60;0.28;;;29.40;99.90;;;;;;5025579;28;20460;-78
2022/02/23 05:43:11;;;;;;;2.58;0.60;;;29.30;99.90;;;;;;5026112;28;20071;-79
2022/02/23 05:45:38;;;;;;;3.85;0.40;;;29.50;99.90;;;;;;5026528;28;20397;-77
2022/02/23 05:48:06;;;;;;;2.67;0.47;;;29.40;99.90;;;;;;5026203;28;20061;-75
2022/02/23 05:50:33;;;;;;;4.93;0.63;;;29.50;99.90;;;;;;5021756;28;20029;-78
2022/02/23 05:53:00;;;;;;;2.25;0.43;;;29.10;99.90;;;;;;5026933;28;20056;-76
2022/02/23 05:55:28;;;;;;;6.28;0.82;;;28.70;99.90;;;;;;5029106;28;20614;-74
2022/02/23 05:57:55;;;;;;;3.40;0.50;;;28.20;99.90;;;;;;5026355;28;20360;-76
2022/02/23 06:00:22;;;;;;;3.88;0.50;;;27.80;99.90;;;;;;5027440;28;20458;-76
2022/02/23 06:02:50;;;;;;;3.40;0.95;;;27.60;99.90;;;;;;5026588;28;20033;-74
2022/02/23 06:05:17;;;;;;;1.98;0.95;;;27.60;99.90;;;;;;5028045;28;20037;-76
2022/02/23 06:07:44;;;;;;;6.65;0.80;;;27.80;99.90;;;;;;5027330;28;20459;-73
2022/02/23 06:10:12;;;;;;;2.92;1.02;;;28.00;99.90;;;;;;5023960;28;20026;-74
2022/02/23 06:12:39;;;;;;;0.52;0.30;;;28.10;99.90;;;;;;5019447;28;20537;-75
2022/02/23 06:15:07;;;;;;;2.78;0.40;;;28.10;99.90;;;;;;5026164;28;20036;-76
2022/02/23 06:17:35;;;;;;;3.75;0.80;;;28.20;99.90;;;;;;5015025;28;20400;-75
2022/02/23 06:20:02;;;;;;;1.30;0.52;;;28.30;99.90;;;;;;5030201;28;20484;-75
2022/02/23 06:22:29;;;;;;;3.08;0.43;;;28.30;99.90;;;;;;5027115;28;20081;-81
2022/02/23 06:24:57;;;;;;;2.92;0.20;;;28.40;99.90;;;;;;5030632;28;20096;-74
2022/02/23 06:27:25;;;;;;;2.72;0.20;;;28.30;99.90;;;;;;5026704;28;20359;-75
2022/02/23 06:29:52;;;;;;;3.83;0.50;;;28.30;99.90;;;;;;5029638;28;20038;-77
2022/02/23 06:32:19;;;;;;;0.60;0.10;;;28.20;99.90;;;;;;5027072;28;20060;-73
2022/02/23 06:34:47;;;;;;;4.40;0.40;;;28.20;99.90;;;;;;5009767;28;20464;-76
2022/02/23 06:37:14;;;;;;;2.85;0.55;;;28.10;99.90;;;;;;5020046;28;20041;-77
2022/02/23 06:39:45;;;;;;;4.75;1.13;;;28.10;99.90;;;;;;5030207;28;20033;-77
2022/02/23 06:42:13;;;;;;;1.90;0.30;;;28.10;99.90;;;;;;5026867;28;20112;-76
2022/02/23 06:44:40;;;;;;;5.45;0.50;;;28.10;99.90;;;;;;5019154;28;20092;-78
2022/02/23 06:47:07;;;;;;;1.83;0.40;;;28.10;99.90;;;;;;5023770;28;20029;-77
2022/02/23 06:49:39;;;;;;;8.55;1.23;;;28.00;99.90;;;;;;5033921;28;20060;-75
2022/02/23 06:52:10;;;;;;;6.97;1.05;;;28.00;99.90;;;;;;5026879;28;20022;-74
2022/02/23 06:54:37;;;;;;;3.05;0.60;;;28.00;99.90;;;;;;5029979;28;20052;-82
2022/02/23 06:57:09;;;;;;;3.22;0.40;;;28.00;99.90;;;;;;5031849;28;20063;-77
2022/02/23 06:59:39;;;;;;;2.92;0.52;;;28.00;99.90;;;;;;5034200;28;20048;-78
2022/02/23 07:02:09;;;;;;;2.70;0.45;;;27.90;99.90;;;;;;5030236;28;20055;-75
2022/02/23 07:04:36;;;;;;;7.82;1.58;;;28.00;99.90;;;;;;5033656;28;20037;-75
2022/02/23 07:07:04;;;;;;;2.38;0.35;;;28.00;99.90;;;;;;5022213;28;20022;-77
2022/02/23 07:09:32;;;;;;;2.13;0.40;;;27.80;99.90;;;;;;5031098;28;20064;-79
2022/02/23 07:12:03;;;;;;;2.70;0.40;;;27.60;99.90;;;;;;5025904;28;20144;-75
2022/02/23 07:14:30;;;;;;;3.70;0.65;;;27.60;99.90;;;;;;5021576;28;20129;-74
2022/02/23 07:16:57;;;;;;;4.00;0.40;;;27.70;99.90;;;;;;5028991;28;20487;-80
2022/02/23 07:19:24;;;;;;;6.25;1.10;;;27.70;99.90;;;;;;5031979;28;20463;-76
2022/02/23 07:21:52;;;;;;;1.67;0.30;;;27.60;99.90;;;;;;5031694;28;20022;-76
2022/02/23 07:24:19;;;;;;;3.13;0.30;;;27.60;99.90;;;;;;5034165;28;20025;-75
2022/02/23 07:26:47;;;;;;;5.45;0.47;;;27.50;99.90;;;;;;5029903;28;20033;-77
2022/02/23 07:29:14;;;;;;;1.60;0.30;;;27.40;99.90;;;;;;5031625;28;20124;-75
2022/02/23 07:31:44;;;;;;;3.88;0.65;;;27.30;99.90;;;;;;5017852;28;20026;-74
2022/02/23 07:34:12;;;;;;;4.43;0.82;;;27.30;99.90;;;;;;5020519;28;20796;-75
2022/02/23 07:36:39;;;;;;;1.98;0.40;;;27.20;99.90;;;;;;5013442;28;20049;-77
2022/02/23 07:39:07;;;;;;;3.25;0.73;;;27.10;99.90;;;;;;5029982;28;20021;-76
2022/02/23 07:41:35;;;;;;;4.55;0.30;;;26.90;99.90;;;;;;5033333;28;20075;-79
2022/02/23 07:44:03;;;;;;;2.33;0.40;;;26.80;99.90;;;;;;5013722;28;20034;-76
2022/02/23 07:46:30;;;;;;;1.85;0.73;;;26.80;99.90;;;;;;5018840;28;20144;-77
2022/02/23 07:49:01;;;;;;;2.10;0.20;;;26.70;99.90;;;;;;5031871;28;20044;-76
2022/02/23 07:51:29;;;;;;;2.92;0.45;;;26.70;99.90;;;;;;5031824;28;20033;-75
2022/02/23 07:53:58;;;;;;;3.38;0.45;;;26.60;99.90;;;;;;5014676;28;20034;-78
2022/02/23 07:56:25;;;;;;;3.28;0.57;;;26.50;99.90;;;;;;5013446;28;20508;-75
2022/02/23 07:58:53;;;;;;;2.20;0.52;;;26.30;99.90;;;;;;5029114;28;20136;-75
2022/02/23 08:01:34;;;;;;;1.23;0.50;;;26.20;99.90;;;;;;5032969;28;20026;-78
2022/02/23 08:04:03;;;;;;;2.03;0.60;;;26.10;99.90;;;;;;5058741;28;20451;-78
2022/02/23 08:06:31;;;;;;;2.58;0.50;;;26.00;99.90;;;;;;5032616;28;20025;-76
2022/02/23 08:09:03;;;;;;;4.97;0.65;;;26.00;99.90;;;;;;5028588;28;20038;-77
2022/02/23 08:11:32;;;;;;;3.33;0.88;;;25.90;99.90;;;;;;5022128;28;20013;-77
2022/02/23 08:13:59;;;;;;;4.22;1.13;;;25.80;99.90;;;;;;5030292;28;20053;-77
2022/02/23 08:19:34;;;;;;;6.07;2.42;;;25.70;99.90;;;;;;5031984;28;20375;-75
2022/02/23 08:22:15;;;;;;;4.57;0.68;;;25.70;99.90;;;;;;5030538;28;20018;-77
2022/02/23 08:24:48;;;;;;;5.15;2.45;;;25.50;99.90;;;;;;5032284;28;20029;-78
2022/02/23 08:27:19;;;;;;;2.05;0.55;;;25.40;99.90;;;;;;5029429;28;20041;-76
2022/02/23 08:29:48;;;;;;;8.10;0.85;;;25.30;99.90;;;;;;5032686;28;20033;-78
2022/02/23 08:32:18;;;;;;;8.32;0.82;;;25.20;99.90;;;;;;5029976;28;20057;-76
2022/02/23 08:34:47;;;;;;;4.82;0.65;;;25.20;99.90;;;;;;5031985;28;20356;-78
2022/02/23 08:37:16;;;;;;;5.72;1.10;;;25.10;99.90;;;;;;5027748;28;20041;-78
2022/02/23 08:39:44;;;;;;;5.97;0.90;;;25.00;99.90;;;;;;5030019;28;20368;-77
2022/02/23 08:42:14;;;;;;;4.28;0.73;;;24.90;99.90;;;;;;5029583;28;20085;-76
2022/02/23 08:44:41;;;;;;;4.72;1.83;;;24.90;99.90;;;;;;5031336;28;20086;-79
2022/02/23 08:47:09;;;;;;;2.58;0.93;;;24.80;99.90;;;;;;5029844;28;20116;-76
2022/02/23 08:49:39;;;;;;;6.38;1.05;;;24.80;99.90;;;;;;5031764;28;20086;-78
2022/02/23 08:52:08;;;;;;;5.80;1.73;;;24.70;99.90;;;;;;5029276;28;20033;-75
2022/02/23 08:54:36;;;;;;;7.00;1.25;;;24.70;99.90;;;;;;5031940;28;20040;-75
2022/02/23 08:57:03;;;;;;;3.92;1.00;;;24.70;99.90;;;;;;5029367;28;20026;-79
2022/02/23 08:59:31;;;;;;;3.15;0.75;;;24.60;99.90;;;;;;5032034;28;20052;-76
2022/02/23 09:01:59;;;;;;;8.60;1.20;;;24.60;99.90;;;;;;5031250;28;20029;-78
2022/02/23 09:04:26;;;;;;;4.47;1.35;;;24.50;99.90;;;;;;5030037;28;20025;-78
2022/02/23 09:06:54;;;;;;;8.52;1.58;;;24.50;99.90;;;;;;5030525;28;20029;-74
2022/02/23 09:09:22;;;;;;;3.38;0.70;;;24.50;99.90;;;;;;5030644;28;20045;-78
2022/02/23 09:11:50;;;;;;;4.63;1.20;;;24.50;99.90;;;;;;5030621;28;20507;-78
2022/02/23 09:14:17;;;;;;;4.95;0.68;;;24.40;99.90;;;;;;5011975;28;20050;-77
2022/02/23 09:16:45;;;;;;;3.85;1.85;;;24.40;99.90;;;;;;5025517;28;20538;-78
2022/02/23 09:19:13;;;;;;;8.43;1.92;;;24.40;99.90;;;;;;5027953;28;20101;-79
2022/02/23 09:21:40;;;;;;;4.63;0.70;;;24.40;99.90;;;;;;5016204;28;20025;-76
2022/02/23 09:24:08;;;;;;;3.92;0.80;;;24.40;99.90;;;;;;5030046;28;20400;-79
2022/02/23 09:26:36;;;;;;;5.07;0.70;;;24.40;99.90;;;;;;5029450;28;20037;-79
2022/02/23 09:29:03;;;;;;;4.30;1.17;;;24.40;99.90;;;;;;5027673;28;20041;-78
2022/02/23 09:31:31;;;;;;;6.15;0.80;;;24.40;99.90;;;;;;5032444;28;20696;-79
2022/02/23 09:33:59;;;;;;;5.05;1.05;;;24.40;99.90;;;;;;5032394;28;20029;-80
2022/02/23 09:36:26;;;;;;;3.88;0.60;;;24.40;99.90;;;;;;5041022;28;20033;-77
2022/02/23 09:38:53;;;;;;;7.05;1.05;;;24.40;99.90;;;;;;5038742;28;20032;-76
2022/02/23 09:41:22;;;;;;;5.05;0.82;;;24.40;99.90;;;;;;5038855;28;20021;-76
2022/02/23 09:43:53;;;;;;;4.05;1.00;;;24.40;99.90;;;;;;5038934;28;20044;-77
2022/02/23 09:46:25;;;;;;;5.68;1.45;;;24.50;99.90;;;;;;5032688;28;20083;-75
2022/02/23 09:48:54;;;;;;;3.75;0.88;;;24.40;99.90;;;;;;5039916;28;20041;-76
2022/02/23 09:51:22;;;;;;;4.03;0.73;;;24.50;99.90;;;;;;5042612;28;20030;-79
2022/02/23 09:53:55;;;;;;;5.18;0.85;;;24.50;99.90;;;;;;5032212;28;20025;-78
2022/02/23 09:56:23;;;;;;;3.38;1.20;;;24.50;99.90;;;;;;5033213;28;20171;-74
2022/02/23 09:58:53;;;;;;;5.28;0.90;;;24.50;99.90;;;;;;5032988;28;20026;-78
2022/02/23 10:01:25;;;;;;;3.45;0.77;;;24.50;99.90;;;;;;5032284;28;20021;-77
2022/02/23 10:03:55;;;;;;;2.95;0.68;;;24.50;99.90;;;;;;5032117;28;20437;-78
2022/02/23 10:06:32;;;;;;;4.30;1.15;;;24.50;99.90;;;;;;5031195;28;20109;-80
2022/02/23 10:09:11;;;;;;;5.50;0.88;;;24.50;99.90;;;;;;5029248;28;20049;-79
2022/02/23 10:11:41;;;;;;;4.43;1.30;;;24.50;99.90;;;;;;5031907;28;20028;-79
2022/02/23 10:14:11;;;;;;;6.93;1.45;;;24.50;99.90;;;;;;5031100;28;20053;-74
2022/02/23 10:16:46;;;;;;;3.25;1.33;;;24.50;99.90;;;;;;5032307;28;20078;-77
2022/02/23 10:19:16;;;;;;;5.18;1.48;;;24.40;99.90;;;;;;5033825;28;20476;-73
2022/02/23 10:21:59;;;;;;;2.58;0.98;;;24.30;99.90;;;;;;5016790;28;20026;-74
2022/02/23 10:24:32;;;;;;;3.95;0.88;;;24.30;99.90;;;;;;5022691;28;20103;-76
2022/02/23 10:27:07;;;;;;;3.53;1.42;;;24.20;99.90;;;;;;5032180;28;20026;-76
2022/02/23 10:29:39;;;;;;;2.40;0.82;;;24.20;99.90;;;;;;5032828;28;20132;-74
2022/02/23 10:32:11;;;;;;;3.80;1.20;;;24.10;99.90;;;;;;5032473;28;20030;-74
2022/02/23 10:34:44;;;;;;;10.05;2.42;;;24.10;99.90;;;;;;5032251;28;20041;-75
2022/02/23 10:37:14;;;;;;;5.57;1.23;;;24.10;99.90;;;;;;5027606;28;20022;-74
2022/02/23 10:39:45;;;;;;;8.25;2.08;;;24.10;99.90;;;;;;5034059;28;20038;-75
2022/02/23 10:42:20;;;;;;;4.50;1.08;;;24.10;99.90;;;;;;5028638;28;20020;-74
2022/02/23 10:44:52;;;;;;;5.43;1.50;;;24.10;99.90;;;;;;5033838;28;20029;-76
2022/02/23 10:47:33;;;;;;;8.18;1.35;;;24.10;99.90;;;;;;5029369;28;20030;-74
2022/02/23 10:50:14;;;;;;;3.47;1.20;;;24.10;99.90;;;;;;5013727;28;20499;-75
2022/02/23 10:52:56;;;;;;;5.63;0.93;;;24.10;99.90;;;;;;5021306;28;20029;-75
2022/02/23 10:55:34;;;;;;;3.85;1.42;;;24.10;99.90;;;;;;5033245;28;20021;-75
2022/02/23 10:58:05;;;;;;;3.00;0.77;;;24.00;99.90;;;;;;5026338;28;20017;-74
2022/02/23 11:00:35;;;;;;;4.68;0.88;;;24.00;99.90;;;;;;5030435;28;20100;-73
2022/02/23 11:03:03;;;;;;;6.30;1.80;;;24.00;99.90;;;;;;5031323;28;20388;-75
2022/02/23 11:05:31;;;;;;;2.38;0.70;;;24.00;99.90;;;;;;5031894;28;20491;-73
2022/02/23 11:08:01;;;;;;;9.38;1.40;;;23.90;99.90;;;;;;5030981;28;20422;-75
2022/02/23 11:10:29;;;;;;;1.90;0.50;;;23.90;99.90;;;;;;5027568;28;20030;-74
2022/02/23 11:12:58;;;;;;;1.33;0.40;;;23.40;99.90;;;;;;5027467;28;20045;-75
2022/02/23 11:15:28;;;;;;;6.22;0.98;;;23.10;99.90;;;;;;5014022;28;20037;-74
2022/02/23 11:17:56;;;;;;;4.35;0.60;;;22.60;99.90;;;;;;5028440;28;20376;-75
2022/02/23 11:20:31;;;;;;;2.72;0.43;;;22.10;99.90;;;;;;5013127;28;20053;-74
2022/02/23 11:23:04;;;;;;;3.00;0.80;;;21.80;99.90;;;;;;5023372;28;20090;-75
2022/02/23 11:25:40;;;;;;;2.83;0.70;;;21.60;99.90;;;;;;5030705;28;20068;-74
2022/02/23 11:28:43;;;;;;;3.75;1.33;;;21.50;99.90;;;;;;5029579;28;20040;-75
2022/02/23 11:31:13;;;;;;;1.83;0.52;;;21.50;99.90;;;;;;5015986;28;20049;-77
2022/02/23 11:33:53;;;;;;;4.00;0.70;;;21.60;99.90;;;;;;5023322;28;20449;-74
2022/02/23 11:36:23;;;;;;;2.45;0.73;;;21.60;99.90;;;;;;5012638;28;20129;-74
2022/02/23 11:38:52;;;;;;;5.45;1.30;;;21.70;99.90;;;;;;5026170;28;20092;-73
2022/02/23 11:41:48;;;;;;;2.95;0.50;;;21.60;99.90;;;;;;5012431;28;20033;-73
2022/02/23 11:44:19;;;;;;;4.25;0.47;;;21.60;99.90;;;;;;5021175;28;20504;-75
2022/02/23 11:47:13;;;;;;;2.78;0.50;;;21.60;99.90;;;;;;5021129;28;20033;-74
2022/02/23 11:49:53;;;;;;;0.70;0.50;;;21.60;99.90;;;;;;5031777;28;20087;-75
2022/02/23 11:52:22;;;;;;;2.22;0.60;;;21.60;99.90;;;;;;5031501;28;20018;-74
2022/02/23 11:54:57;;;;;;;1.58;0.50;;;21.60;99.90;;;;;;5031092;28;20038;-74
2022/02/23 11:57:42;;;;;;;3.90;0.50;;;21.60;99.90;;;;;;5029158;28;20032;-76
2022/02/23 12:00:34;;;;;;;2.30;0.83;;;21.60;99.90;;;;;;5031069;28;20345;-74
2022/02/23 12:03:06;;;;;;;4.85;0.85;;;21.60;99.90;;;;;;5024598;28;20463;-74
2022/02/23 12:05:45;;;;;;;3.33;0.68;;;21.60;99.90;;;;;;5027512;28;20138;-76
2022/02/23 12:08:44;;;;;;;1.95;0.45;;;21.60;99.90;;;;;;5027642;28;20033;-73
2022/02/23 12:11:13;;;;;;;2.53;0.45;;;21.60;99.90;;;;;;5023026;28;20037;-74
2022/02/23 12:13:45;;;;;;;1.70;0.98;;;21.60;99.90;;;;;;5030760;28;20106;-74
2022/02/23 12:16:24;;;;;;;2.17;0.55;;;21.60;99.90;;;;;;5030015;28;20045;-74
2022/02/23 12:19:02;;;;;;;2.33;0.30;;;21.60;99.90;;;;;;5025991;28;20091;-73
2022/02/23 12:21:56;;;;;;;2.65;0.63;;;21.70;99.90;;;;;;5012061;28;20021;-73
2022/02/23 12:24:24;;;;;;;5.13;0.93;;;21.70;99.90;;;;;;5011907;28;20026;-74
2022/02/23 12:26:54;;;;;;;3.92;0.60;;;21.80;99.90;;;;;;5020184;28;20021;-77
2022/02/23 12:29:32;;;;;;;1.15;0.38;;;21.90;99.90;;;;;;5028856;28;20056;-74
2022/02/23 12:32:09;;;;;;;2.08;0.80;;;21.90;99.90;;;;;;5024974;28;20476;-73
2022/02/23 12:34:38;;;;;;;2.72;0.80;;;21.90;99.90;;;;;;5014696;28;20431;-75
2022/02/23 12:37:06;;;;;;;1.70;0.57;;;21.90;99.90;;;;;;5029553;28;20036;-74
2022/02/23 12:39:33;;;;;;;2.78;0.88;;;21.90;99.90;;;;;;5030819;28;20537;-75
2022/02/23 12:42:04;;;;;;;2.20;0.80;;;21.90;99.90;;;;;;5013117;28;20045;-73
2022/02/23 12:44:37;;;;;;;2.35;1.00;;;21.90;99.90;;;;;;5011564;28;20022;-72
2022/02/23 12:47:11;;;;;;;5.88;0.77;;;22.00;99.90;;;;;;5018304;28;20041;-74
2022/02/23 12:49:39;;;;;;;2.88;0.80;;;22.00;99.90;;;;;;5031871;28;20487;-75
2022/02/23 12:52:08;;;;;;;5.82;0.70;;;22.00;99.90;;;;;;5021121;28;20026;-76
2022/02/23 12:54:36;;;;;;;1.23;0.50;;;22.10;99.90;;;;;;5045540;28;20044;-74
2022/02/23 12:57:06;;;;;;;3.95;0.70;;;22.00;99.90;;;;;;5028960;28;20194;-73
2022/02/23 12:59:35;;;;;;;5.90;1.30;;;22.10;99.90;;;;;;5030892;28;20033;-73
2022/02/23 13:02:11;;;;;;;3.17;1.17;;;22.10;99.90;;;;;;5028310;28;20029;-74